sensor_id;sensor_type;location;lat;lon;timestamp;P1;durP1;ratioP1;P2;durP2;ratioP2
7156;SDS011;3620;49.862;8.758;2022-08-11T00:00:59;0.50;;;0.50;;
7156;SDS011;3620;49.862;8.758;2022-08-11T00:03:30;0.50;;;0.50;;
7156;SDS011;3620;49.862;8.758;2022-08-11T00:05:58;0.50;;;0.50;;
7156;SDS011;3620;49.862;8.758;2022-08-11T00:08:27;0.50;;;0.50;;
7156;SDS011;3620;49.862;8.758;2022-08-11T00:10:56;0.50;;;0.50;;
7156;SDS011;3620;49.862;8.758;2022-08-11T00:13:31;0.50;;;0.50;;
7156;SDS011;3620;49.862;8.758;2022-08-11T00:15:59;0.50;;;0.50;;
7156;SDS011;3620;49.862;8.758;2022-08-11T00:18:27;0.50;;;0.50;;
7156;SDS011;3620;49.862;8.758;2022-08-11T00:20:56;0.50;;;0.50;;
7156;SDS011;3620;49.862;8.758;2022-08-11T00:23:25;0.50;;;0.50;;
7156;SDS011;3620;49.862;8.758;2022-08-11T00:25:53;0.50;;;0.50;;
7156;SDS011;3620;49.862;8.758;2022-08-11T00:28:26;0.50;;;0.50;;
7156;SDS011;3620;49.862;8.758;2022-08-11T00:30:56;0.60;;;0.60;;
7156;SDS011;3620;49.862;8.758;2022-08-11T00:33:25;0.43;;;0.43;;
7156;SDS011;3620;49.862;8.758;2022-08-11T00:35:58;0.50;;;0.50;;
7156;SDS011;3620;49.862;8.758;2022-08-11T00:38:28;0.53;;;0.53;;
7156;SDS011;3620;49.862;8.758;2022-08-11T00:41:00;0.60;;;0.60;;
7156;SDS011;3620;49.862;8.758;2022-08-11T00:43:46;0.60;;;0.60;;
7156;SDS011;3620;49.862;8.758;2022-08-11T00:46:26;0.40;;;0.40;;
7156;SDS011;3620;49.862;8.758;2022-08-11T00:49:10;0.50;;;0.50;;
7156;SDS011;3620;49.862;8.758;2022-08-11T00:51:46;0.50;;;0.50;;
7156;SDS011;3620;49.862;8.758;2022-08-11T00:54:39;0.57;;;0.57;;
7156;SDS011;3620;49.862;8.758;2022-08-11T01:01:03;0.60;;;0.60;;
7156;SDS011;3620;49.862;8.758;2022-08-11T01:03:47;0.50;;;0.50;;
7156;SDS011;3620;49.862;8.758;2022-08-11T01:06:46;0.60;;;0.60;;
7156;SDS011;3620;49.862;8.758;2022-08-11T01:09:34;0.57;;;0.57;;
7156;SDS011;3620;49.862;8.758;2022-08-11T01:12:18;0.50;;;0.50;;
7156;SDS011;3620;49.862;8.758;2022-08-11T01:25:02;0.50;;;0.50;;
7156;SDS011;3620;49.862;8.758;2022-08-11T01:28:13;0.57;;;0.57;;
7156;SDS011;3620;49.862;8.758;2022-08-11T01:37:27;0.60;;;0.60;;
7156;SDS011;3620;49.862;8.758;2022-08-11T01:40:18;0.57;;;0.57;;
7156;SDS011;3620;49.862;8.758;2022-08-11T01:46:25;0.50;;;0.50;;
7156;SDS011;3620;49.862;8.758;2022-08-11T01:49:01;0.50;;;0.50;;
7156;SDS011;3620;49.862;8.758;2022-08-11T01:51:37;0.60;;;0.60;;
7156;SDS011;3620;49.862;8.758;2022-08-11T01:54:36;0.53;;;0.53;;
7156;SDS011;3620;49.862;8.758;2022-08-11T01:57:12;0.60;;;0.60;;
7156;SDS011;3620;49.862;8.758;2022-08-11T01:59:53;0.50;;;0.50;;
7156;SDS011;3620;49.862;8.758;2022-08-11T02:02:28;0.60;;;0.60;;
7156;SDS011;3620;49.862;8.758;2022-08-11T02:08:10;0.60;;;0.60;;
7156;SDS011;3620;49.862;8.758;2022-08-11T02:10:48;0.50;;;0.50;;
7156;SDS011;3620;49.862;8.758;2022-08-11T02:13:41;0.60;;;0.60;;
7156;SDS011;3620;49.862;8.758;2022-08-11T02:16:15;0.50;;;0.50;;
7156;SDS011;3620;49.862;8.758;2022-08-11T02:18:48;0.60;;;0.60;;
7156;SDS011;3620;49.862;8.758;2022-08-11T02:21:37;0.60;;;0.60;;
7156;SDS011;3620;49.862;8.758;2022-08-11T02:24:29;0.50;;;0.50;;
7156;SDS011;3620;49.862;8.758;2022-08-11T02:27:03;0.50;;;0.50;;
7156;SDS011;3620;49.862;8.758;2022-08-11T02:29:37;0.50;;;0.50;;
7156;SDS011;3620;49.862;8.758;2022-08-11T02:32:13;0.50;;;0.50;;
7156;SDS011;3620;49.862;8.758;2022-08-11T02:35:04;0.60;;;0.60;;
7156;SDS011;3620;49.862;8.758;2022-08-11T02:37:45;0.60;;;0.60;;
7156;SDS011;3620;49.862;8.758;2022-08-11T02:40:17;0.60;;;0.60;;
7156;SDS011;3620;49.862;8.758;2022-08-11T02:43:00;0.50;;;0.50;;
7156;SDS011;3620;49.862;8.758;2022-08-11T02:45:36;0.60;;;0.60;;
7156;SDS011;3620;49.862;8.758;2022-08-11T02:48:13;0.57;;;0.57;;
7156;SDS011;3620;49.862;8.758;2022-08-11T02:51:15;0.60;;;0.60;;
7156;SDS011;3620;49.862;8.758;2022-08-11T02:53:53;0.50;;;0.50;;
7156;SDS011;3620;49.862;8.758;2022-08-11T02:56:31;0.50;;;0.50;;
7156;SDS011;3620;49.862;8.758;2022-08-11T02:59:12;0.60;;;0.60;;
7156;SDS011;3620;49.862;8.758;2022-08-11T03:02:05;0.57;;;0.57;;
7156;SDS011;3620;49.862;8.758;2022-08-11T03:04:42;0.50;;;0.50;;
7156;SDS011;3620;49.862;8.758;2022-08-11T03:07:16;0.60;;;0.60;;
7156;SDS011;3620;49.862;8.758;2022-08-11T03:09:48;0.60;;;0.60;;
7156;SDS011;3620;49.862;8.758;2022-08-11T03:12:23;0.70;;;0.70;;
7156;SDS011;3620;49.862;8.758;2022-08-11T03:15:15;0.60;;;0.60;;
7156;SDS011;3620;49.862;8.758;2022-08-11T03:18:19;0.60;;;0.60;;
7156;SDS011;3620;49.862;8.758;2022-08-11T03:20:52;0.50;;;0.50;;
7156;SDS011;3620;49.862;8.758;2022-08-11T03:23:28;0.50;;;0.50;;
7156;SDS011;3620;49.862;8.758;2022-08-11T03:26:00;0.50;;;0.50;;
7156;SDS011;3620;49.862;8.758;2022-08-11T03:28:33;0.60;;;0.60;;
7156;SDS011;3620;49.862;8.758;2022-08-11T03:31:09;0.60;;;0.60;;
7156;SDS011;3620;49.862;8.758;2022-08-11T03:33:49;0.60;;;0.60;;
7156;SDS011;3620;49.862;8.758;2022-08-11T03:36:41;0.57;;;0.57;;
7156;SDS011;3620;49.862;8.758;2022-08-11T03:39:33;0.50;;;0.50;;
7156;SDS011;3620;49.862;8.758;2022-08-11T03:42:09;0.70;;;0.70;;
7156;SDS011;3620;49.862;8.758;2022-08-11T03:44:49;0.60;;;0.60;;
7156;SDS011;3620;49.862;8.758;2022-08-11T03:47:36;0.60;;;0.60;;
7156;SDS011;3620;49.862;8.758;2022-08-11T03:50:14;0.63;;;0.63;;
7156;SDS011;3620;49.862;8.758;2022-08-11T03:52:57;0.50;;;0.50;;
7156;SDS011;3620;49.862;8.758;2022-08-11T03:55:40;0.50;;;0.50;;
7156;SDS011;3620;49.862;8.758;2022-08-11T03:58:46;0.60;;;0.60;;
7156;SDS011;3620;49.862;8.758;2022-08-11T04:08:04;0.60;;;0.60;;
7156;SDS011;3620;49.862;8.758;2022-08-11T04:11:10;0.60;;;0.60;;
7156;SDS011;3620;49.862;8.758;2022-08-11T04:17:30;0.67;;;0.67;;
7156;SDS011;3620;49.862;8.758;2022-08-11T04:23:23;0.50;;;0.50;;
7156;SDS011;3620;49.862;8.758;2022-08-11T04:26:20;0.60;;;0.60;;
7156;SDS011;3620;49.862;8.758;2022-08-11T04:29:13;0.60;;;0.60;;
7156;SDS011;3620;49.862;8.758;2022-08-11T04:31:59;0.60;;;0.60;;
7156;SDS011;3620;49.862;8.758;2022-08-11T04:34:34;0.60;;;0.60;;
7156;SDS011;3620;49.862;8.758;2022-08-11T04:37:15;0.60;;;0.60;;
7156;SDS011;3620;49.862;8.758;2022-08-11T04:49:35;0.60;;;0.60;;
7156;SDS011;3620;49.862;8.758;2022-08-11T04:56:08;0.60;;;0.60;;
7156;SDS011;3620;49.862;8.758;2022-08-11T04:59:07;0.50;;;0.50;;
7156;SDS011;3620;49.862;8.758;2022-08-11T05:02:14;0.57;;;0.57;;
7156;SDS011;3620;49.862;8.758;2022-08-11T05:05:08;0.60;;;0.60;;
7156;SDS011;3620;49.862;8.758;2022-08-11T05:08:26;0.70;;;0.70;;
7156;SDS011;3620;49.862;8.758;2022-08-11T05:11:32;0.60;;;0.60;;
7156;SDS011;3620;49.862;8.758;2022-08-11T05:14:26;0.60;;;0.60;;
7156;SDS011;3620;49.862;8.758;2022-08-11T05:17:20;0.60;;;0.60;;
7156;SDS011;3620;49.862;8.758;2022-08-11T05:20:10;0.60;;;0.60;;
7156;SDS011;3620;49.862;8.758;2022-08-11T05:22:55;0.60;;;0.60;;
7156;SDS011;3620;49.862;8.758;2022-08-11T05:26:01;0.70;;;0.70;;
7156;SDS011;3620;49.862;8.758;2022-08-11T05:28:51;0.60;;;0.60;;
7156;SDS011;3620;49.862;8.758;2022-08-11T05:31:38;0.60;;;0.60;;
7156;SDS011;3620;49.862;8.758;2022-08-11T05:34:26;0.60;;;0.60;;
7156;SDS011;3620;49.862;8.758;2022-08-11T05:37:20;0.50;;;0.50;;
7156;SDS011;3620;49.862;8.758;2022-08-11T05:39:52;0.50;;;0.50;;
7156;SDS011;3620;49.862;8.758;2022-08-11T05:42:41;0.50;;;0.50;;
7156;SDS011;3620;49.862;8.758;2022-08-11T05:45:32;0.60;;;0.60;;
7156;SDS011;3620;49.862;8.758;2022-08-11T05:48:17;0.50;;;0.50;;
7156;SDS011;3620;49.862;8.758;2022-08-11T05:51:01;0.50;;;0.50;;
7156;SDS011;3620;49.862;8.758;2022-08-11T05:53:48;0.60;;;0.60;;
7156;SDS011;3620;49.862;8.758;2022-08-11T05:56:39;0.60;;;0.60;;
7156;SDS011;3620;49.862;8.758;2022-08-11T05:59:11;0.60;;;0.60;;
7156;SDS011;3620;49.862;8.758;2022-08-11T06:01:40;0.50;;;0.50;;
7156;SDS011;3620;49.862;8.758;2022-08-11T06:04:11;0.50;;;0.50;;
7156;SDS011;3620;49.862;8.758;2022-08-11T06:06:51;0.63;;;0.63;;
7156;SDS011;3620;49.862;8.758;2022-08-11T06:09:25;0.60;;;0.60;;
7156;SDS011;3620;49.862;8.758;2022-08-11T06:11:54;0.60;;;0.60;;
7156;SDS011;3620;49.862;8.758;2022-08-11T06:14:23;0.60;;;0.60;;
7156;SDS011;3620;49.862;8.758;2022-08-11T06:16:54;0.60;;;0.60;;
7156;SDS011;3620;49.862;8.758;2022-08-11T06:19:28;0.60;;;0.60;;
7156;SDS011;3620;49.862;8.758;2022-08-11T06:21:57;0.53;;;0.53;;
7156;SDS011;3620;49.862;8.758;2022-08-11T06:24:26;0.60;;;0.60;;
7156;SDS011;3620;49.862;8.758;2022-08-11T06:26:53;0.60;;;0.60;;
7156;SDS011;3620;49.862;8.758;2022-08-11T06:29:21;0.50;;;0.50;;
7156;SDS011;3620;49.862;8.758;2022-08-11T06:31:52;0.60;;;0.60;;
7156;SDS011;3620;49.862;8.758;2022-08-11T06:34:27;0.60;;;0.60;;
7156;SDS011;3620;49.862;8.758;2022-08-11T06:37:03;0.53;;;0.53;;
7156;SDS011;3620;49.862;8.758;2022-08-11T06:39:43;0.50;;;0.50;;
7156;SDS011;3620;49.862;8.758;2022-08-11T06:42:23;0.40;;;0.40;;
7156;SDS011;3620;49.862;8.758;2022-08-11T06:45:02;0.60;;;0.60;;
7156;SDS011;3620;49.862;8.758;2022-08-11T06:47:38;0.53;;;0.53;;
7156;SDS011;3620;49.862;8.758;2022-08-11T06:50:08;0.40;;;0.40;;
7156;SDS011;3620;49.862;8.758;2022-08-11T06:52:52;0.60;;;0.60;;
7156;SDS011;3620;49.862;8.758;2022-08-11T06:55:21;0.50;;;0.50;;
7156;SDS011;3620;49.862;8.758;2022-08-11T06:58:16;0.50;;;0.50;;
7156;SDS011;3620;49.862;8.758;2022-08-11T07:01:04;0.67;;;0.67;;
7156;SDS011;3620;49.862;8.758;2022-08-11T07:03:38;0.60;;;0.60;;
7156;SDS011;3620;49.862;8.758;2022-08-11T07:09:10;0.47;;;0.47;;
7156;SDS011;3620;49.862;8.758;2022-08-11T07:12:22;0.50;;;0.50;;
7156;SDS011;3620;49.862;8.758;2022-08-11T07:15:20;0.50;;;0.50;;
7156;SDS011;3620;49.862;8.758;2022-08-11T07:18:10;0.60;;;0.60;;
7156;SDS011;3620;49.862;8.758;2022-08-11T07:21:14;0.60;;;0.60;;
7156;SDS011;3620;49.862;8.758;2022-08-11T07:24:07;0.50;;;0.50;;
7156;SDS011;3620;49.862;8.758;2022-08-11T07:26:55;0.60;;;0.60;;
7156;SDS011;3620;49.862;8.758;2022-08-11T07:29:43;0.50;;;0.50;;
7156;SDS011;3620;49.862;8.758;2022-08-11T07:32:13;0.50;;;0.50;;
7156;SDS011;3620;49.862;8.758;2022-08-11T07:34:48;0.60;;;0.60;;
7156;SDS011;3620;49.862;8.758;2022-08-11T07:37:23;0.50;;;0.50;;
7156;SDS011;3620;49.862;8.758;2022-08-11T07:39:54;0.50;;;0.50;;
7156;SDS011;3620;49.862;8.758;2022-08-11T07:42:27;0.50;;;0.50;;
7156;SDS011;3620;49.862;8.758;2022-08-11T07:44:58;0.43;;;0.43;;
7156;SDS011;3620;49.862;8.758;2022-08-11T07:47:43;0.50;;;0.50;;
7156;SDS011;3620;49.862;8.758;2022-08-11T07:50:29;0.50;;;0.50;;
7156;SDS011;3620;49.862;8.758;2022-08-11T07:53:15;0.60;;;0.60;;
7156;SDS011;3620;49.862;8.758;2022-08-11T07:55:43;0.50;;;0.50;;
7156;SDS011;3620;49.862;8.758;2022-08-11T07:58:13;0.60;;;0.60;;
7156;SDS011;3620;49.862;8.758;2022-08-11T08:00:58;0.50;;;0.50;;
7156;SDS011;3620;49.862;8.758;2022-08-11T08:03:43;0.60;;;0.60;;
7156;SDS011;3620;49.862;8.758;2022-08-11T08:06:28;0.50;;;0.50;;
7156;SDS011;3620;49.862;8.758;2022-08-11T08:09:18;0.50;;;0.50;;
7156;SDS011;3620;49.862;8.758;2022-08-11T08:12:04;0.50;;;0.50;;
7156;SDS011;3620;49.862;8.758;2022-08-11T08:14:49;0.57;;;0.57;;
7156;SDS011;3620;49.862;8.758;2022-08-11T08:17:35;0.50;;;0.50;;
7156;SDS011;3620;49.862;8.758;2022-08-11T08:20:17;0.50;;;0.50;;
7156;SDS011;3620;49.862;8.758;2022-08-11T08:22:46;0.50;;;0.50;;
7156;SDS011;3620;49.862;8.758;2022-08-11T08:25:18;0.50;;;0.50;;
7156;SDS011;3620;49.862;8.758;2022-08-11T08:27:45;0.50;;;0.50;;
7156;SDS011;3620;49.862;8.758;2022-08-11T08:30:12;0.40;;;0.40;;
7156;SDS011;3620;49.862;8.758;2022-08-11T08:32:57;0.40;;;0.40;;
7156;SDS011;3620;49.862;8.758;2022-08-11T08:35:25;0.40;;;0.40;;
7156;SDS011;3620;49.862;8.758;2022-08-11T08:37:54;0.50;;;0.50;;
7156;SDS011;3620;49.862;8.758;2022-08-11T08:40:22;0.50;;;0.50;;
7156;SDS011;3620;49.862;8.758;2022-08-11T08:42:51;0.50;;;0.50;;
7156;SDS011;3620;49.862;8.758;2022-08-11T08:45:20;0.50;;;0.50;;
7156;SDS011;3620;49.862;8.758;2022-08-11T08:47:50;0.40;;;0.40;;
7156;SDS011;3620;49.862;8.758;2022-08-11T08:50:21;0.40;;;0.40;;
7156;SDS011;3620;49.862;8.758;2022-08-11T08:53:08;0.40;;;0.40;;
7156;SDS011;3620;49.862;8.758;2022-08-11T08:55:37;0.40;;;0.40;;
7156;SDS011;3620;49.862;8.758;2022-08-11T08:58:06;0.40;;;0.40;;
7156;SDS011;3620;49.862;8.758;2022-08-11T09:00:36;0.30;;;0.30;;
7156;SDS011;3620;49.862;8.758;2022-08-11T09:03:05;0.40;;;0.40;;
7156;SDS011;3620;49.862;8.758;2022-08-11T09:05:32;0.40;;;0.40;;
7156;SDS011;3620;49.862;8.758;2022-08-11T09:08:00;0.50;;;0.50;;
7156;SDS011;3620;49.862;8.758;2022-08-11T09:10:27;0.40;;;0.40;;
7156;SDS011;3620;49.862;8.758;2022-08-11T09:12:57;0.47;;;0.47;;
7156;SDS011;3620;49.862;8.758;2022-08-11T09:15:25;0.50;;;0.50;;
7156;SDS011;3620;49.862;8.758;2022-08-11T09:17:53;0.40;;;0.40;;
7156;SDS011;3620;49.862;8.758;2022-08-11T09:20:27;0.40;;;0.40;;
7156;SDS011;3620;49.862;8.758;2022-08-11T09:22:58;0.40;;;0.40;;
7156;SDS011;3620;49.862;8.758;2022-08-11T09:25:45;0.40;;;0.40;;
7156;SDS011;3620;49.862;8.758;2022-08-11T09:28:32;0.50;;;0.50;;
7156;SDS011;3620;49.862;8.758;2022-08-11T09:31:00;0.30;;;0.30;;
7156;SDS011;3620;49.862;8.758;2022-08-11T09:33:28;0.50;;;0.50;;
7156;SDS011;3620;49.862;8.758;2022-08-11T09:35:56;0.40;;;0.40;;
7156;SDS011;3620;49.862;8.758;2022-08-11T09:38:45;0.40;;;0.40;;
7156;SDS011;3620;49.862;8.758;2022-08-11T09:41:30;0.50;;;0.50;;
7156;SDS011;3620;49.862;8.758;2022-08-11T09:43:59;0.40;;;0.40;;
7156;SDS011;3620;49.862;8.758;2022-08-11T09:46:45;0.40;;;0.40;;
7156;SDS011;3620;49.862;8.758;2022-08-11T09:49:11;0.40;;;0.40;;
7156;SDS011;3620;49.862;8.758;2022-08-11T09:51:38;0.40;;;0.40;;
7156;SDS011;3620;49.862;8.758;2022-08-11T09:54:07;0.40;;;0.40;;
7156;SDS011;3620;49.862;8.758;2022-08-11T09:56:33;0.30;;;0.30;;
7156;SDS011;3620;49.862;8.758;2022-08-11T09:59:20;0.30;;;0.30;;
7156;SDS011;3620;49.862;8.758;2022-08-11T10:01:48;0.32;;;0.32;;
7156;SDS011;3620;49.862;8.758;2022-08-11T10:04:21;0.30;;;0.30;;
7156;SDS011;3620;49.862;8.758;2022-08-11T10:06:55;0.40;;;0.40;;
7156;SDS011;3620;49.862;8.758;2022-08-11T10:09:28;0.40;;;0.40;;
7156;SDS011;3620;49.862;8.758;2022-08-11T10:12:02;0.40;;;0.40;;
7156;SDS011;3620;49.862;8.758;2022-08-11T10:14:34;0.40;;;0.40;;
7156;SDS011;3620;49.862;8.758;2022-08-11T10:17:23;0.40;;;0.40;;
7156;SDS011;3620;49.862;8.758;2022-08-11T10:19:50;0.40;;;0.40;;
7156;SDS011;3620;49.862;8.758;2022-08-11T10:22:21;0.40;;;0.40;;
7156;SDS011;3620;49.862;8.758;2022-08-11T10:25:07;0.40;;;0.40;;
7156;SDS011;3620;49.862;8.758;2022-08-11T10:27:53;0.40;;;0.40;;
7156;SDS011;3620;49.862;8.758;2022-08-11T10:30:24;0.40;;;0.40;;
7156;SDS011;3620;49.862;8.758;2022-08-11T10:33:09;0.40;;;0.40;;
7156;SDS011;3620;49.862;8.758;2022-08-11T10:35:54;0.30;;;0.30;;
7156;SDS011;3620;49.862;8.758;2022-08-11T10:38:21;0.40;;;0.40;;
7156;SDS011;3620;49.862;8.758;2022-08-11T10:40:48;0.30;;;0.30;;
7156;SDS011;3620;49.862;8.758;2022-08-11T10:43:36;0.40;;;0.40;;
7156;SDS011;3620;49.862;8.758;2022-08-11T10:46:05;0.40;;;0.40;;
7156;SDS011;3620;49.862;8.758;2022-08-11T10:48:52;0.30;;;0.30;;
7156;SDS011;3620;49.862;8.758;2022-08-11T10:51:21;0.40;;;0.40;;
7156;SDS011;3620;49.862;8.758;2022-08-11T10:54:07;0.40;;;0.40;;
7156;SDS011;3620;49.862;8.758;2022-08-11T10:56:51;0.40;;;0.40;;
7156;SDS011;3620;49.862;8.758;2022-08-11T10:59:36;0.40;;;0.40;;
7156;SDS011;3620;49.862;8.758;2022-08-11T11:02:05;0.40;;;0.40;;
7156;SDS011;3620;49.862;8.758;2022-08-11T11:04:32;0.30;;;0.30;;
7156;SDS011;3620;49.862;8.758;2022-08-11T11:07:12;0.40;;;0.40;;
7156;SDS011;3620;49.862;8.758;2022-08-11T11:09:46;0.40;;;0.40;;
7156;SDS011;3620;49.862;8.758;2022-08-11T11:12:17;0.40;;;0.40;;
7156;SDS011;3620;49.862;8.758;2022-08-11T11:15:06;0.40;;;0.40;;
7156;SDS011;3620;49.862;8.758;2022-08-11T11:17:52;0.40;;;0.40;;
7156;SDS011;3620;49.862;8.758;2022-08-11T11:20:26;0.40;;;0.40;;
7156;SDS011;3620;49.862;8.758;2022-08-11T11:22:56;0.30;;;0.30;;
7156;SDS011;3620;49.862;8.758;2022-08-11T11:25:34;0.40;;;0.40;;
7156;SDS011;3620;49.862;8.758;2022-08-11T11:28:33;0.40;;;0.40;;
7156;SDS011;3620;49.862;8.758;2022-08-11T11:31:18;0.40;;;0.40;;
7156;SDS011;3620;49.862;8.758;2022-08-11T11:34:10;0.40;;;0.40;;
7156;SDS011;3620;49.862;8.758;2022-08-11T11:36:44;0.30;;;0.30;;
7156;SDS011;3620;49.862;8.758;2022-08-11T11:39:15;0.40;;;0.40;;
7156;SDS011;3620;49.862;8.758;2022-08-11T11:41:44;0.30;;;0.30;;
7156;SDS011;3620;49.862;8.758;2022-08-11T11:44:11;0.38;;;0.38;;
7156;SDS011;3620;49.862;8.758;2022-08-11T11:46:38;0.40;;;0.40;;
7156;SDS011;3620;49.862;8.758;2022-08-11T11:49:10;0.30;;;0.30;;
7156;SDS011;3620;49.862;8.758;2022-08-11T11:51:39;0.30;;;0.30;;
7156;SDS011;3620;49.862;8.758;2022-08-11T11:54:06;0.40;;;0.40;;
7156;SDS011;3620;49.862;8.758;2022-08-11T11:56:34;0.30;;;0.30;;
7156;SDS011;3620;49.862;8.758;2022-08-11T11:59:02;0.32;;;0.32;;
7156;SDS011;3620;49.862;8.758;2022-08-11T12:01:47;0.40;;;0.40;;
7156;SDS011;3620;49.862;8.758;2022-08-11T12:04:15;0.40;;;0.40;;
7156;SDS011;3620;49.862;8.758;2022-08-11T12:06:43;0.30;;;0.30;;
7156;SDS011;3620;49.862;8.758;2022-08-11T12:09:11;0.30;;;0.30;;
7156;SDS011;3620;49.862;8.758;2022-08-11T12:11:42;0.40;;;0.40;;
7156;SDS011;3620;49.862;8.758;2022-08-11T12:14:27;0.30;;;0.30;;
7156;SDS011;3620;49.862;8.758;2022-08-11T12:16:55;0.30;;;0.30;;
7156;SDS011;3620;49.862;8.758;2022-08-11T12:19:25;0.30;;;0.30;;
7156;SDS011;3620;49.862;8.758;2022-08-11T12:21:54;0.30;;;0.30;;
7156;SDS011;3620;49.862;8.758;2022-08-11T12:24:39;0.30;;;0.30;;
7156;SDS011;3620;49.862;8.758;2022-08-11T12:27:23;0.30;;;0.30;;
7156;SDS011;3620;49.862;8.758;2022-08-11T12:29:52;0.20;;;0.20;;
7156;SDS011;3620;49.862;8.758;2022-08-11T12:32:22;0.30;;;0.30;;
7156;SDS011;3620;49.862;8.758;2022-08-11T12:34:52;0.32;;;0.32;;
7156;SDS011;3620;49.862;8.758;2022-08-11T12:37:22;0.30;;;0.30;;
7156;SDS011;3620;49.862;8.758;2022-08-11T12:39:55;0.30;;;0.30;;
7156;SDS011;3620;49.862;8.758;2022-08-11T12:42:43;0.32;;;0.32;;
7156;SDS011;3620;49.862;8.758;2022-08-11T12:45:29;0.30;;;0.30;;
7156;SDS011;3620;49.862;8.758;2022-08-11T12:48:02;0.40;;;0.40;;
7156;SDS011;3620;49.862;8.758;2022-08-11T12:50:53;0.30;;;0.30;;
7156;SDS011;3620;49.862;8.758;2022-08-11T12:54:08;0.30;;;0.30;;
7156;SDS011;3620;49.862;8.758;2022-08-11T12:56:38;0.30;;;0.30;;
7156;SDS011;3620;49.862;8.758;2022-08-11T12:59:26;0.30;;;0.30;;
7156;SDS011;3620;49.862;8.758;2022-08-11T13:02:11;0.30;;;0.30;;
7156;SDS011;3620;49.862;8.758;2022-08-11T13:05:00;0.30;;;0.30;;
7156;SDS011;3620;49.862;8.758;2022-08-11T13:07:29;0.30;;;0.30;;
7156;SDS011;3620;49.862;8.758;2022-08-11T13:09:57;0.30;;;0.30;;
7156;SDS011;3620;49.862;8.758;2022-08-11T13:12:26;0.30;;;0.30;;
7156;SDS011;3620;49.862;8.758;2022-08-11T13:15:13;0.30;;;0.30;;
7156;SDS011;3620;49.862;8.758;2022-08-11T13:17:42;0.30;;;0.30;;
7156;SDS011;3620;49.862;8.758;2022-08-11T13:20:10;0.30;;;0.30;;
7156;SDS011;3620;49.862;8.758;2022-08-11T13:22:40;0.30;;;0.30;;
7156;SDS011;3620;49.862;8.758;2022-08-11T13:25:10;0.32;;;0.32;;
7156;SDS011;3620;49.862;8.758;2022-08-11T13:27:40;0.30;;;0.30;;
7156;SDS011;3620;49.862;8.758;2022-08-11T13:30:07;0.30;;;0.30;;
7156;SDS011;3620;49.862;8.758;2022-08-11T13:32:52;0.30;;;0.30;;
7156;SDS011;3620;49.862;8.758;2022-08-11T13:35:20;0.30;;;0.30;;
7156;SDS011;3620;49.862;8.758;2022-08-11T13:37:49;0.40;;;0.40;;
7156;SDS011;3620;49.862;8.758;2022-08-11T13:40:16;0.30;;;0.30;;
7156;SDS011;3620;49.862;8.758;2022-08-11T13:42:46;0.30;;;0.30;;
7156;SDS011;3620;49.862;8.758;2022-08-11T13:45:14;0.30;;;0.30;;
7156;SDS011;3620;49.862;8.758;2022-08-11T13:47:41;0.30;;;0.30;;
7156;SDS011;3620;49.862;8.758;2022-08-11T13:50:08;0.30;;;0.30;;
7156;SDS011;3620;49.862;8.758;2022-08-11T13:52:37;0.30;;;0.30;;
7156;SDS011;3620;49.862;8.758;2022-08-11T13:55:08;0.40;;;0.40;;
7156;SDS011;3620;49.862;8.758;2022-08-11T13:57:45;0.30;;;0.30;;
7156;SDS011;3620;49.862;8.758;2022-08-11T14:00:14;0.30;;;0.30;;
7156;SDS011;3620;49.862;8.758;2022-08-11T14:02:41;0.30;;;0.30;;
7156;SDS011;3620;49.862;8.758;2022-08-11T14:05:11;0.30;;;0.30;;
7156;SDS011;3620;49.862;8.758;2022-08-11T14:07:41;0.30;;;0.30;;
7156;SDS011;3620;49.862;8.758;2022-08-11T14:10:15;0.30;;;0.30;;
7156;SDS011;3620;49.862;8.758;2022-08-11T14:12:44;0.20;;;0.20;;
7156;SDS011;3620;49.862;8.758;2022-08-11T14:15:34;0.30;;;0.30;;
7156;SDS011;3620;49.862;8.758;2022-08-11T14:18:02;0.22;;;0.22;;
7156;SDS011;3620;49.862;8.758;2022-08-11T14:20:32;0.28;;;0.28;;
7156;SDS011;3620;49.862;8.758;2022-08-11T14:23:14;0.20;;;0.20;;
7156;SDS011;3620;49.862;8.758;2022-08-11T14:25:43;0.20;;;0.20;;
7156;SDS011;3620;49.862;8.758;2022-08-11T14:28:23;0.20;;;0.20;;
7156;SDS011;3620;49.862;8.758;2022-08-11T14:30:50;0.30;;;0.30;;
7156;SDS011;3620;49.862;8.758;2022-08-11T14:33:20;0.30;;;0.30;;
7156;SDS011;3620;49.862;8.758;2022-08-11T14:35:47;0.30;;;0.30;;
7156;SDS011;3620;49.862;8.758;2022-08-11T14:38:14;0.30;;;0.30;;
7156;SDS011;3620;49.862;8.758;2022-08-11T14:40:43;0.30;;;0.30;;
7156;SDS011;3620;49.862;8.758;2022-08-11T14:43:28;0.30;;;0.30;;
7156;SDS011;3620;49.862;8.758;2022-08-11T14:46:13;0.30;;;0.30;;
7156;SDS011;3620;49.862;8.758;2022-08-11T14:48:57;0.30;;;0.30;;
7156;SDS011;3620;49.862;8.758;2022-08-11T14:51:24;0.30;;;0.30;;
7156;SDS011;3620;49.862;8.758;2022-08-11T14:53:51;0.20;;;0.20;;
7156;SDS011;3620;49.862;8.758;2022-08-11T14:56:40;0.20;;;0.20;;
7156;SDS011;3620;49.862;8.758;2022-08-11T14:59:08;0.20;;;0.20;;
7156;SDS011;3620;49.862;8.758;2022-08-11T15:01:36;0.20;;;0.20;;
7156;SDS011;3620;49.862;8.758;2022-08-11T15:04:26;0.20;;;0.20;;
7156;SDS011;3620;49.862;8.758;2022-08-11T15:06:53;0.30;;;0.30;;
7156;SDS011;3620;49.862;8.758;2022-08-11T15:09:19;0.30;;;0.30;;
7156;SDS011;3620;49.862;8.758;2022-08-11T15:11:47;0.30;;;0.30;;
7156;SDS011;3620;49.862;8.758;2022-08-11T15:14:32;0.30;;;0.30;;
7156;SDS011;3620;49.862;8.758;2022-08-11T15:17:16;0.30;;;0.30;;
7156;SDS011;3620;49.862;8.758;2022-08-11T15:19:43;0.30;;;0.30;;
7156;SDS011;3620;49.862;8.758;2022-08-11T15:22:26;0.20;;;0.20;;
7156;SDS011;3620;49.862;8.758;2022-08-11T15:25:10;0.30;;;0.30;;
7156;SDS011;3620;49.862;8.758;2022-08-11T15:27:38;0.30;;;0.30;;
7156;SDS011;3620;49.862;8.758;2022-08-11T15:30:25;0.30;;;0.30;;
7156;SDS011;3620;49.862;8.758;2022-08-11T15:33:10;0.20;;;0.20;;
7156;SDS011;3620;49.862;8.758;2022-08-11T15:35:59;0.20;;;0.20;;
7156;SDS011;3620;49.862;8.758;2022-08-11T15:38:57;0.20;;;0.20;;
7156;SDS011;3620;49.862;8.758;2022-08-11T15:41:27;0.20;;;0.20;;
7156;SDS011;3620;49.862;8.758;2022-08-11T15:44:19;0.20;;;0.20;;
7156;SDS011;3620;49.862;8.758;2022-08-11T15:47:04;0.20;;;0.20;;
7156;SDS011;3620;49.862;8.758;2022-08-11T15:49:35;0.20;;;0.20;;
7156;SDS011;3620;49.862;8.758;2022-08-11T15:52:05;0.20;;;0.20;;
7156;SDS011;3620;49.862;8.758;2022-08-11T15:54:34;0.20;;;0.20;;
7156;SDS011;3620;49.862;8.758;2022-08-11T15:57:06;0.20;;;0.20;;
7156;SDS011;3620;49.862;8.758;2022-08-11T15:59:36;0.20;;;0.20;;
7156;SDS011;3620;49.862;8.758;2022-08-11T16:02:23;0.20;;;0.20;;
7156;SDS011;3620;49.862;8.758;2022-08-11T16:05:13;0.30;;;0.30;;
7156;SDS011;3620;49.862;8.758;2022-08-11T16:07:42;0.20;;;0.20;;
7156;SDS011;3620;49.862;8.758;2022-08-11T16:10:13;0.20;;;0.20;;
7156;SDS011;3620;49.862;8.758;2022-08-11T16:12:46;0.20;;;0.20;;
7156;SDS011;3620;49.862;8.758;2022-08-11T16:15:44;0.20;;;0.20;;
7156;SDS011;3620;49.862;8.758;2022-08-11T16:18:32;0.20;;;0.20;;
7156;SDS011;3620;49.862;8.758;2022-08-11T16:21:07;0.20;;;0.20;;
7156;SDS011;3620;49.862;8.758;2022-08-11T16:23:35;0.20;;;0.20;;
7156;SDS011;3620;49.862;8.758;2022-08-11T16:26:05;0.20;;;0.20;;
7156;SDS011;3620;49.862;8.758;2022-08-11T16:28:33;0.20;;;0.20;;
7156;SDS011;3620;49.862;8.758;2022-08-11T16:31:03;0.30;;;0.30;;
7156;SDS011;3620;49.862;8.758;2022-08-11T16:33:34;0.22;;;0.22;;
7156;SDS011;3620;49.862;8.758;2022-08-11T16:36:05;0.20;;;0.20;;
7156;SDS011;3620;49.862;8.758;2022-08-11T16:38:51;0.30;;;0.30;;
7156;SDS011;3620;49.862;8.758;2022-08-11T16:41:18;0.30;;;0.30;;
7156;SDS011;3620;49.862;8.758;2022-08-11T16:44:02;0.30;;;0.30;;
7156;SDS011;3620;49.862;8.758;2022-08-11T16:46:49;0.22;;;0.22;;
7156;SDS011;3620;49.862;8.758;2022-08-11T16:49:27;0.30;;;0.30;;
7156;SDS011;3620;49.862;8.758;2022-08-11T16:51:57;0.30;;;0.30;;
7156;SDS011;3620;49.862;8.758;2022-08-11T16:54:28;0.20;;;0.20;;
7156;SDS011;3620;49.862;8.758;2022-08-11T16:56:55;0.30;;;0.30;;
7156;SDS011;3620;49.862;8.758;2022-08-11T16:59:43;0.30;;;0.30;;
7156;SDS011;3620;49.862;8.758;2022-08-11T17:02:15;0.30;;;0.30;;
7156;SDS011;3620;49.862;8.758;2022-08-11T17:05:06;0.30;;;0.30;;
7156;SDS011;3620;49.862;8.758;2022-08-11T17:07:52;0.30;;;0.30;;
7156;SDS011;3620;49.862;8.758;2022-08-11T17:10:40;0.30;;;0.30;;
7156;SDS011;3620;49.862;8.758;2022-08-11T17:13:32;0.30;;;0.30;;
7156;SDS011;3620;49.862;8.758;2022-08-11T17:16:03;0.30;;;0.30;;
7156;SDS011;3620;49.862;8.758;2022-08-11T17:18:35;0.30;;;0.30;;